createdAt,value
2022-09-13T00:01:18.692Z,60.12
2022-09-13T00:03:50.903Z,59.13
2022-09-13T00:06:23.666Z,59.32
2022-09-13T00:08:57.412Z,61.08
2022-09-13T00:11:31.762Z,61.54
2022-09-13T00:14:03.302Z,61.74
2022-09-13T00:16:35.591Z,61.20
2022-09-13T00:19:07.510Z,60.14
2022-09-13T00:21:39.162Z,59.67
2022-09-13T00:24:13.690Z,60.10
2022-09-13T00:26:44.888Z,60.68
2022-09-13T00:29:15.595Z,61.04
2022-09-13T00:31:45.735Z,60.18
2022-09-13T00:34:16.344Z,60.60
2022-09-13T00:36:46.176Z,60.26
2022-09-13T00:39:18.550Z,60.30
2022-09-13T00:41:48.637Z,60.64
2022-09-13T00:44:48.493Z,61.78
2022-09-13T00:47:24.095Z,61.54
2022-09-13T00:49:58.982Z,61.95
2022-09-13T00:52:33.776Z,62.07
2022-09-13T00:55:14.631Z,62.29
2022-09-13T00:57:45.778Z,62.02
2022-09-13T01:00:19.589Z,61.82
2022-09-13T01:02:53.967Z,62.18
2022-09-13T01:05:27.842Z,61.81
2022-09-13T01:07:59.732Z,61.92
2022-09-13T01:10:36.033Z,61.13
2022-09-13T01:13:14.979Z,60.58
2022-09-13T01:15:45.432Z,61.43
2022-09-13T01:18:15.584Z,61.72
2022-09-13T01:21:08.163Z,60.83
2022-09-13T01:23:53.647Z,60.69
2022-09-13T01:26:50.980Z,60.08
2022-09-13T01:29:47.329Z,59.96
2022-09-13T01:32:27.405Z,60.58
2022-09-13T01:35:08.931Z,60.99
2022-09-13T01:37:49.892Z,60.95
2022-09-13T01:40:33.965Z,61.88
2022-09-13T01:43:17.251Z,60.79
2022-09-13T01:45:56.513Z,61.21
2022-09-13T01:48:39.764Z,61.28
2022-09-13T01:51:14.544Z,61.42
2022-09-13T01:53:51.072Z,61.05
2022-09-13T01:56:29.514Z,60.26
2022-09-13T01:59:05.247Z,60.84
2022-09-13T02:07:40.909Z,60.61
2022-09-13T02:10:16.060Z,60.56
2022-09-13T02:12:47.535Z,60.78
2022-09-13T02:15:19.878Z,60.16
2022-09-13T02:17:54.656Z,60.46
2022-09-13T02:20:31.219Z,60.60
2022-09-13T02:23:08.410Z,60.51
2022-09-13T02:25:42.032Z,60.48
2022-09-13T02:28:15.811Z,60.83
2022-09-13T02:30:52.017Z,61.17
2022-09-13T02:33:27.261Z,60.25
2022-09-13T02:36:01.262Z,60.83
2022-09-13T02:38:36.820Z,61.65
2022-09-13T02:41:16.287Z,62.50
2022-09-13T02:43:53.077Z,61.74
2022-09-13T02:46:32.559Z,61.66
2022-09-13T02:49:10.857Z,61.40
2022-09-13T02:51:50.087Z,61.53
2022-09-13T02:54:29.273Z,61.50
2022-09-13T02:57:04.026Z,61.18
2022-09-13T02:59:34.502Z,60.86
2022-09-13T03:02:10.230Z,61.09
2022-09-13T03:04:40.073Z,61.40
2022-09-13T03:07:13.650Z,61.64
2022-09-13T03:09:55.060Z,60.99
2022-09-13T03:12:54.814Z,61.08
2022-09-13T03:15:35.610Z,60.98
2022-09-13T03:18:17.535Z,61.42
2022-09-13T03:20:54.921Z,61.37
2022-09-13T03:23:40.916Z,62.42
2022-09-13T03:26:47.702Z,62.61
2022-09-13T03:29:33.913Z,61.99
2022-09-13T03:32:19.315Z,62.31
2022-09-13T03:34:55.156Z,61.56
2022-09-13T03:37:30.709Z,61.18
2022-09-13T03:40:06.659Z,62.11
2022-09-13T03:42:46.955Z,62.12
2022-09-13T03:45:19.852Z,62.83
2022-09-13T03:47:51.957Z,62.82
2022-09-13T03:50:25.482Z,62.18
2022-09-13T03:53:01.121Z,62.86
2022-09-13T03:55:32.925Z,62.32
2022-09-13T03:58:05.344Z,62.62
2022-09-13T04:00:35.509Z,63.57
2022-09-13T04:03:06.078Z,64.13
2022-09-13T04:05:36.612Z,64.95
2022-09-13T04:08:08.540Z,65.17
2022-09-13T04:10:40.029Z,64.82
2022-09-13T04:13:12.760Z,64.79
2022-09-13T04:15:42.898Z,64.85
2022-09-13T04:18:12.661Z,65.72
2022-09-13T04:20:42.565Z,66.16
2022-09-13T04:23:12.740Z,66.73
2022-09-13T04:25:43.137Z,66.66
2022-09-13T04:28:15.779Z,66.93
2022-09-13T04:30:47.184Z,66.18
2022-09-13T04:33:18.134Z,65.58
2022-09-13T04:38:49.620Z,66.70
2022-09-13T04:41:19.641Z,66.75
2022-09-13T04:43:54.404Z,66.29
2022-09-13T04:46:24.242Z,66.94
2022-09-13T04:48:55.419Z,67.47
2022-09-13T04:51:25.292Z,67.21
2022-09-13T04:53:56.198Z,66.26
2022-09-13T04:56:27.576Z,66.15
2022-09-13T04:59:00.677Z,66.95
2022-09-13T05:01:31.203Z,67.22
2022-09-13T05:04:01.263Z,66.50
2022-09-13T05:06:31.348Z,67.26
2022-09-13T05:09:01.141Z,66.92
2022-09-13T05:11:32.257Z,66.94
2022-09-13T05:14:06.535Z,66.74
2022-09-13T05:16:36.841Z,66.75
2022-09-13T05:19:07.063Z,66.46
2022-09-13T05:21:37.210Z,67.37
2022-09-13T05:24:07.047Z,66.47
2022-09-13T05:26:36.879Z,66.16
2022-09-13T05:29:09.784Z,66.59
2022-09-13T05:31:41.844Z,66.68
2022-09-13T05:34:14.020Z,67.01
2022-09-13T05:36:44.785Z,67.25
2022-09-13T05:42:08.359Z,67.56
2022-09-13T05:44:41.191Z,67.30
2022-09-13T05:47:11.044Z,68.74
2022-09-13T05:50:01.931Z,68.21
2022-09-13T05:52:31.038Z,68.75
2022-09-13T05:55:01.221Z,68.70
2022-09-13T05:57:31.048Z,68.20
2022-09-13T06:00:03.498Z,68.31
2022-09-13T06:02:33.848Z,68.86
2022-09-13T06:05:03.821Z,70.26
2022-09-13T06:07:33.873Z,71.53
2022-09-13T06:10:04.058Z,70.78
2022-09-13T06:12:33.985Z,69.91
2022-09-13T06:15:07.495Z,69.35
2022-09-13T06:21:18.462Z,68.49
2022-09-13T06:23:51.104Z,68.67
2022-09-13T06:26:23.307Z,70.50
2022-09-13T06:28:54.943Z,70.19
2022-09-13T06:31:29.814Z,70.38
2022-09-13T06:34:02.485Z,71.00
2022-09-13T06:36:32.600Z,71.82
2022-09-13T06:39:04.693Z,71.53
2022-09-13T06:41:34.747Z,71.22
2022-09-13T06:44:05.543Z,70.60
2022-09-13T06:46:38.503Z,71.62
2022-09-13T06:49:10.814Z,72.13
2022-09-13T06:51:40.812Z,72.21
2022-09-13T06:54:11.218Z,72.82
2022-09-13T06:59:51.836Z,71.95
2022-09-13T07:02:25.768Z,71.70
2022-09-13T07:04:57.009Z,71.75
2022-09-13T07:07:27.265Z,71.73
2022-09-13T07:13:28.288Z,71.66
2022-09-13T07:15:58.499Z,70.85
2022-09-13T07:18:31.042Z,71.77
2022-09-13T07:21:06.276Z,72.45
2022-09-13T07:23:37.516Z,72.00
2022-09-13T07:26:09.673Z,72.83
2022-09-13T07:28:41.467Z,72.04
2022-09-13T07:31:14.207Z,71.92
2022-09-13T07:33:48.123Z,71.27
2022-09-13T07:36:18.278Z,72.27
2022-09-13T07:38:48.294Z,72.92
2022-09-13T07:41:20.034Z,73.44
2022-09-13T07:43:51.856Z,72.81
2022-09-13T07:46:24.015Z,71.79
2022-09-13T07:52:38.118Z,72.12
2022-09-13T07:55:08.760Z,71.23
2022-09-13T07:57:38.690Z,69.96
2022-09-13T08:00:11.298Z,69.77
2022-09-13T08:02:41.486Z,70.39
2022-09-13T08:05:11.863Z,69.94
2022-09-13T08:07:44.960Z,70.88
2022-09-13T08:10:15.151Z,71.55
2022-09-13T08:12:45.024Z,71.64
2022-09-13T08:15:15.085Z,71.77
2022-09-13T08:17:45.273Z,72.63
2022-09-13T08:20:15.085Z,73.20
2022-09-13T08:22:47.876Z,72.44
2022-09-13T08:25:18.416Z,72.77
2022-09-13T08:27:51.700Z,72.66
2022-09-13T08:30:22.947Z,72.58
2022-09-13T08:32:54.265Z,73.40
2022-09-13T08:35:24.365Z,73.56
2022-09-13T08:37:57.185Z,73.96
2022-09-13T08:40:30.218Z,73.91
2022-09-13T08:43:09.369Z,73.98
2022-09-13T08:45:41.863Z,72.44
2022-09-13T08:48:17.218Z,73.34
2022-09-13T08:50:48.663Z,71.86
2022-09-13T08:53:26.771Z,73.85
2022-09-13T08:56:04.682Z,74.16
2022-09-13T08:58:58.443Z,73.17
2022-09-13T09:12:48.379Z,72.34
2022-09-13T09:15:22.843Z,71.80
2022-09-13T09:17:59.210Z,71.92
2022-09-13T09:20:34.934Z,72.05
2022-09-13T09:23:09.573Z,71.24
2022-09-13T09:25:39.686Z,69.85
2022-09-13T09:35:16.022Z,68.61
2022-09-13T09:38:27.703Z,68.53
2022-09-13T09:40:57.832Z,68.80
2022-09-13T09:43:35.817Z,69.27
2022-09-13T09:46:07.505Z,68.81
2022-09-13T09:48:44.046Z,68.56
2022-09-13T09:51:20.702Z,68.82
2022-09-13T09:53:56.880Z,68.31
2022-09-13T09:56:36.602Z,67.75
2022-09-13T09:59:08.377Z,67.70
2022-09-13T10:01:44.840Z,67.02
2022-09-13T10:11:57.459Z,67.33
2022-09-13T10:14:39.800Z,65.36
2022-09-13T10:17:19.160Z,64.39
2022-09-13T10:19:58.535Z,64.80
2022-09-13T10:22:29.849Z,64.74
2022-09-13T10:25:21.624Z,64.16
2022-09-13T10:27:57.335Z,64.27
2022-09-13T10:30:39.406Z,64.26
2022-09-13T10:33:23.695Z,62.49
2022-09-13T10:35:57.012Z,62.80
2022-09-13T10:38:33.119Z,63.20
2022-09-13T10:41:06.173Z,63.63
2022-09-13T10:43:40.233Z,64.06
2022-09-13T10:46:17.625Z,63.19
2022-09-13T10:48:55.929Z,63.43
2022-09-13T10:51:38.577Z,63.07
2022-09-13T10:54:26.740Z,62.00
2022-09-13T10:56:56.592Z,62.10
2022-09-13T10:59:31.780Z,62.96
2022-09-13T11:02:31.590Z,62.86
2022-09-13T11:05:23.799Z,63.87
2022-09-13T11:08:23.949Z,63.39
2022-09-13T11:11:09.546Z,63.16
2022-09-13T11:13:56.035Z,63.48
2022-09-13T11:16:40.275Z,64.49
2022-09-13T11:19:30.458Z,64.47
2022-09-13T11:22:17.670Z,65.84
2022-09-13T11:25:06.722Z,66.42
2022-09-13T11:27:46.374Z,67.95
2022-09-13T11:30:21.107Z,71.21
2022-09-13T11:33:26.279Z,72.58
2022-09-13T11:36:14.097Z,74.71
2022-09-13T11:38:56.047Z,75.00
2022-09-13T11:41:36.502Z,76.63
2022-09-13T11:44:33.048Z,77.19
2022-09-13T11:47:15.404Z,76.65
2022-09-13T11:50:03.369Z,77.77
2022-09-13T11:52:42.573Z,76.74
2022-09-13T11:55:20.189Z,76.65
2022-09-13T11:57:54.914Z,77.03
2022-09-13T12:00:27.874Z,77.47
2022-09-13T12:03:10.568Z,76.45
2022-09-13T12:05:49.621Z,75.94
2022-09-13T12:08:23.442Z,75.11
2022-09-13T12:10:56.791Z,76.21
2022-09-13T12:13:29.429Z,76.70
2022-09-13T12:16:05.075Z,75.77
2022-09-13T12:18:38.850Z,75.51
2022-09-13T12:21:14.516Z,74.33
2022-09-13T12:23:50.408Z,73.87
2022-09-13T12:26:25.176Z,73.23
2022-09-13T12:28:59.005Z,72.10
2022-09-13T12:31:32.541Z,73.44
2022-09-13T12:34:08.366Z,73.71
2022-09-13T12:37:09.187Z,74.52
2022-09-13T12:40:12.531Z,75.20
2022-09-13T12:43:04.473Z,73.89
2022-09-13T12:46:04.236Z,72.92
2022-09-13T12:49:09.542Z,73.53
2022-09-13T12:52:00.716Z,72.70
2022-09-13T12:55:04.530Z,73.08
2022-09-13T12:57:43.813Z,72.47
2022-09-13T13:09:43.746Z,71.27
2022-09-13T13:12:30.147Z,69.22
2022-09-13T13:15:01.790Z,70.21
2022-09-13T13:17:41.792Z,69.80
2022-09-13T13:20:42.646Z,69.50
2022-09-13T13:23:28.776Z,67.60
2022-09-13T13:26:12.006Z,69.94
2022-09-13T13:29:45.580Z,69.45
2022-09-13T13:35:37.121Z,70.55
2022-09-13T13:38:35.910Z,70.73
2022-09-13T13:48:38.570Z,70.23
2022-09-13T13:51:20.630Z,69.52
2022-09-13T13:53:54.773Z,70.11
2022-09-13T13:56:54.576Z,69.94
2022-09-13T13:59:30.074Z,70.43
2022-09-13T14:02:16.956Z,70.15
2022-09-13T14:05:20.160Z,69.43
2022-09-13T14:08:15.528Z,67.76
2022-09-13T14:10:53.189Z,66.49
2022-09-13T14:13:47.893Z,65.33
2022-09-13T14:16:35.735Z,66.00
2022-09-13T14:22:21.307Z,67.21
2022-09-13T14:24:55.932Z,66.63
2022-09-13T14:27:28.705Z,63.51
2022-09-13T14:30:03.553Z,61.25
2022-09-13T14:32:46.326Z,58.59
2022-09-13T14:35:29.031Z,60.39
2022-09-13T14:38:14.565Z,62.70
2022-09-13T14:40:44.951Z,63.08
2022-09-13T14:43:19.408Z,63.29
2022-09-13T14:45:54.898Z,62.26
2022-09-13T14:48:29.529Z,61.57
2022-09-13T14:51:03.287Z,61.26
2022-09-13T14:53:37.838Z,61.62
2022-09-13T14:56:11.965Z,61.90
2022-09-13T14:58:50.632Z,61.97
2022-09-13T15:01:24.742Z,61.86
2022-09-13T15:03:54.807Z,61.58
2022-09-13T15:06:28.027Z,61.70
2022-09-13T15:09:03.918Z,60.73
2022-09-13T15:15:26.342Z,58.26
2022-09-13T15:17:58.792Z,57.64
2022-09-13T15:20:31.491Z,59.39
2022-09-13T15:23:02.106Z,59.95
2022-09-13T15:25:51.367Z,58.61
2022-09-13T15:28:30.240Z,56.97
2022-09-13T15:31:02.667Z,57.54
2022-09-13T15:33:34.373Z,57.27
2022-09-13T15:36:28.475Z,57.68
2022-09-13T15:39:02.806Z,57.85
2022-09-13T15:41:38.167Z,58.12
2022-09-13T15:47:50.586Z,56.94
2022-09-13T15:50:27.051Z,58.03
2022-09-13T15:52:57.680Z,57.43
2022-09-13T15:55:29.432Z,57.91
2022-09-13T15:58:01.717Z,58.80
2022-09-13T16:00:31.805Z,59.47
2022-09-13T16:03:01.791Z,59.68
2022-09-13T16:05:31.879Z,59.67
2022-09-13T16:08:01.679Z,59.91
2022-09-13T16:10:31.647Z,59.64
2022-09-13T16:13:04.632Z,60.08
2022-09-13T16:15:34.656Z,60.68
2022-09-13T16:18:04.898Z,62.01
2022-09-13T16:20:34.733Z,62.16
2022-09-13T16:23:04.792Z,61.73
2022-09-13T16:25:35.093Z,61.35
2022-09-13T16:28:08.774Z,62.37
2022-09-13T16:30:38.912Z,62.11
2022-09-13T16:33:08.685Z,61.78
2022-09-13T16:35:38.417Z,62.54
2022-09-13T16:38:08.742Z,60.76
2022-09-13T16:40:38.536Z,61.24
2022-09-13T16:43:11.077Z,61.19
2022-09-13T16:45:42.263Z,61.73
2022-09-13T16:48:12.200Z,60.87
2022-09-13T16:50:43.727Z,61.06
2022-09-13T16:53:13.654Z,61.00
2022-09-13T16:55:45.744Z,61.10
2022-09-13T16:58:18.075Z,61.53
2022-09-13T17:00:48.192Z,61.51
2022-09-13T17:03:18.019Z,62.22
2022-09-13T17:05:47.820Z,62.43
2022-09-13T17:08:17.872Z,62.23
2022-09-13T17:10:47.716Z,62.28
2022-09-13T17:16:47.915Z,62.98
2022-09-13T17:19:20.457Z,63.24
2022-09-13T17:21:51.263Z,63.06
2022-09-13T17:24:21.792Z,62.86
2022-09-13T17:26:51.879Z,63.15
2022-09-13T17:29:22.884Z,63.50
2022-09-13T17:31:56.243Z,63.70
2022-09-13T17:34:26.756Z,63.48
2022-09-13T17:36:57.240Z,63.44
2022-09-13T17:39:27.534Z,64.23
2022-09-13T17:41:58.031Z,63.92
2022-09-13T17:44:28.743Z,64.68
2022-09-13T17:53:27.021Z,64.90
2022-09-13T17:55:57.843Z,64.61
2022-09-13T17:58:29.439Z,64.99
2022-09-13T18:01:05.380Z,65.43
2022-09-13T18:03:36.445Z,65.12
2022-09-13T18:06:08.186Z,65.20
2022-09-13T18:08:41.739Z,65.06
2022-09-13T18:11:14.704Z,64.92
2022-09-13T18:20:33.321Z,65.67
2022-09-13T18:23:06.235Z,65.67
2022-09-13T18:25:40.302Z,65.45
2022-09-13T18:28:10.695Z,65.56
2022-09-13T18:30:40.751Z,65.74
2022-09-13T18:33:12.091Z,66.42
2022-09-13T18:35:42.111Z,66.13
2022-09-13T18:38:12.420Z,66.74
2022-09-13T18:40:44.803Z,66.29
2022-09-13T18:43:15.101Z,65.99
2022-09-13T18:45:45.191Z,66.18
2022-09-13T18:49:24.151Z,65.70
2022-09-13T18:54:57.556Z,65.48
2022-09-13T18:57:30.423Z,66.07
2022-09-13T19:00:01.983Z,66.48
2022-09-13T19:03:02.081Z,66.41
2022-09-13T19:05:43.843Z,66.81
2022-09-13T19:08:16.327Z,67.71
2022-09-13T19:10:46.451Z,68.24
2022-09-13T19:13:19.359Z,68.38
2022-09-13T19:15:49.741Z,68.37
2022-09-13T19:18:37.650Z,69.48
2022-09-13T19:27:37.452Z,68.31
2022-09-13T19:30:20.331Z,68.53
2022-09-13T19:32:54.067Z,67.65
2022-09-13T19:35:29.790Z,67.38
2022-09-13T19:38:00.956Z,67.08
2022-09-13T19:40:32.835Z,68.51
2022-09-13T19:43:03.906Z,70.20
2022-09-13T19:45:36.407Z,70.43
2022-09-13T19:48:37.638Z,70.72
2022-09-13T19:50:56.496Z,70.08
2022-09-13T19:53:46.632Z,70.23
2022-09-13T19:56:19.315Z,70.93
2022-09-13T19:58:50.520Z,70.79
2022-09-13T20:04:33.698Z,70.45
2022-09-13T20:07:03.802Z,70.31
2022-09-13T20:12:43.556Z,69.56
2022-09-13T20:15:15.624Z,70.00
2022-09-13T20:17:45.622Z,69.65
2022-09-13T20:20:18.830Z,69.69
2022-09-13T20:22:49.064Z,68.74
2022-09-13T20:25:20.087Z,67.52
2022-09-13T20:27:50.461Z,67.37
2022-09-13T20:30:20.660Z,67.32
2022-09-13T20:32:53.234Z,67.23
2022-09-13T20:35:32.173Z,67.98
2022-09-13T20:38:05.217Z,69.37
2022-09-13T20:40:35.450Z,70.11
2022-09-13T20:43:05.345Z,70.71
2022-09-13T20:52:19.799Z,68.14
2022-09-13T20:54:49.831Z,66.72
2022-09-13T20:57:19.647Z,66.39
2022-09-13T20:59:49.482Z,65.47
2022-09-13T21:02:19.692Z,65.42
2022-09-13T21:04:49.756Z,65.19
2022-09-13T21:14:18.971Z,64.04
2022-09-13T21:19:53.472Z,65.24
2022-09-13T21:22:25.334Z,65.27
2022-09-13T21:24:55.457Z,64.90
2022-09-13T21:27:28.293Z,64.69
2022-09-13T21:30:01.094Z,65.15
2022-09-13T21:32:32.417Z,65.30
2022-09-13T21:35:02.927Z,65.43
2022-09-13T21:37:33.171Z,65.24
2022-09-13T21:40:03.348Z,64.76
2022-09-13T21:42:33.399Z,64.71
2022-09-13T21:45:06.693Z,63.72
2022-09-13T21:47:36.885Z,62.89
2022-09-13T21:50:07.310Z,62.63
2022-09-13T21:52:39.866Z,64.10
2022-09-13T21:55:11.254Z,64.03
2022-09-13T21:57:40.996Z,63.94
2022-09-13T22:00:16.308Z,62.77
2022-09-13T22:02:46.588Z,61.12
2022-09-13T22:05:17.488Z,60.58
2022-09-13T22:07:47.519Z,60.09
2022-09-13T22:10:17.948Z,60.50
2022-09-13T22:12:48.062Z,57.96
2022-09-13T22:15:20.728Z,57.27
2022-09-13T22:17:50.916Z,59.97
2022-09-13T22:20:20.810Z,60.03
2022-09-13T22:22:50.621Z,60.29
2022-09-13T22:25:22.654Z,59.97
2022-09-13T22:27:52.364Z,59.61
2022-09-13T22:30:25.170Z,58.52
2022-09-13T22:32:55.317Z,55.95
2022-09-13T22:35:25.178Z,55.35
2022-09-13T22:37:55.006Z,54.99
2022-09-13T22:40:25.144Z,55.05
2022-09-13T22:42:54.943Z,54.99
2022-09-13T22:45:27.400Z,54.62
2022-09-13T22:47:57.448Z,55.00
2022-09-13T22:50:27.309Z,55.08
2022-09-13T22:52:57.111Z,55.46
2022-09-13T22:55:27.211Z,55.53
2022-09-13T22:57:57.067Z,55.29
2022-09-13T23:00:29.752Z,55.94
2022-09-13T23:03:00.384Z,56.16
2022-09-13T23:05:31.009Z,55.88
2022-09-13T23:08:02.664Z,56.27
2022-09-13T23:10:36.298Z,57.96
2022-09-13T23:13:08.569Z,58.38
2022-09-13T23:15:43.276Z,58.50
2022-09-13T23:18:15.140Z,58.55
2022-09-13T23:20:46.213Z,58.91
2022-09-13T23:23:17.707Z,58.73
2022-09-13T23:25:49.177Z,59.55
2022-09-13T23:28:20.765Z,60.12
2022-09-13T23:30:57.222Z,61.30
2022-09-13T23:33:29.076Z,61.51
2022-09-13T23:36:01.545Z,62.06
2022-09-13T23:38:33.113Z,61.87
2022-09-13T23:41:05.377Z,62.49
2022-09-13T23:43:37.543Z,61.98
2022-09-13T23:46:12.776Z,63.00
2022-09-13T23:48:45.180Z,63.62
2022-09-13T23:51:19.308Z,64.09
2022-09-13T23:53:50.782Z,64.08
2022-09-13T23:56:23.080Z,65.45
2022-09-13T23:58:55.259Z,65.25
